Time;durP1;ratioP1;P1;durP2;ratioP2;P2;SDS_P1;SDS_P2;PMS_P1;PMS_P2;Temp;Humidity;BMP_temperature;BMP_pressure;BME280_temperature;BME280_humidity;BME280_pressure;Samples;Min_cycle;Max_cycle;Signal;HPM_P1;HPM_P2
2022/08/03 00:02:18;;;;;;;5.87;3.30;;;;;;;18.32;67.13;99340.28;4500903;31;36422;-81
2022/08/03 00:04:46;;;;;;;4.07;2.95;;;;;;;18.39;67.34;99341.75;4499541;31;34403;-81
2022/08/03 00:07:14;;;;;;;5.65;3.00;;;;;;;18.65;66.10;99343.22;4502295;31;33584;-81
2022/08/03 00:09:42;;;;;;;6.22;3.35;;;;;;;18.57;66.80;99343.56;4500251;31;33926;-81
2022/08/03 00:12:11;;;;;;;5.40;4.00;;;;;;;18.81;66.72;99346.03;4500856;31;35061;-81
2022/08/03 00:14:39;;;;;;;6.45;3.97;;;;;;;19.17;64.74;99350.63;4501082;31;34364;-81
2022/08/03 00:17:07;;;;;;;6.20;3.00;;;;;;;18.83;66.00;99346.88;4494620;31;34290;-80
2022/08/03 00:19:35;;;;;;;5.00;3.17;;;;;;;19.10;65.39;99343.94;4485804;31;33254;-81
2022/08/03 00:22:02;;;;;;;5.00;3.40;;;;;;;18.99;65.88;99347.06;4501908;31;35177;-81
2022/08/03 00:24:30;;;;;;;4.50;3.12;;;;;;;18.70;66.70;99346.53;4500924;31;34399;-81
2022/08/03 00:26:58;;;;;;;5.07;3.50;;;;;;;18.77;66.75;99355.03;4500804;31;33400;-81
2022/08/03 00:29:26;;;;;;;6.72;3.65;;;;;;;18.35;68.37;99346.28;4501108;31;33875;-81
2022/08/03 00:31:54;;;;;;;4.97;3.58;;;;;;;18.87;66.72;99347.59;4501832;31;35281;-81
2022/08/03 00:34:27;;;;;;;5.22;4.00;;;;;;;18.49;68.61;99347.47;4499434;31;34837;-81
2022/08/03 00:37:15;;;;;;;5.20;3.50;;;;;;;18.68;67.67;99347.53;4494587;31;33303;-81
2022/08/03 00:39:46;;;;;;;5.90;3.33;;;;;;;18.68;67.42;99342.25;4500983;31;33943;-81
2022/08/03 00:42:14;;;;;;;5.75;4.20;;;;;;;18.60;67.83;99347.88;4500997;31;34363;-81
2022/08/03 00:44:43;;;;;;;5.37;3.80;;;;;;;18.90;67.19;99350.09;4500855;31;35127;-81
2022/08/03 00:47:12;;;;;;;5.35;3.67;;;;;;;18.96;66.78;99352.47;4500631;31;33493;-81
2022/08/03 00:49:40;;;;;;;4.65;3.37;;;;;;;18.91;66.97;99351.81;4499695;31;34072;-81
2022/08/03 00:52:09;;;;;;;5.03;3.70;;;;;;;18.61;67.83;99354.84;4500484;31;35191;-81
2022/08/03 00:54:37;;;;;;;5.18;3.60;;;;;;;18.86;66.98;99356.44;4500207;31;34250;-81
2022/08/03 00:57:06;;;;;;;5.43;3.80;;;;;;;18.48;68.75;99356.31;4501906;31;34230;-81
2022/08/03 00:59:35;;;;;;;4.70;3.45;;;;;;;18.90;66.82;99358.88;4499613;31;33988;-81
2022/08/03 01:02:03;;;;;;;8.25;3.60;;;;;;;18.83;67.01;99360.09;4485911;32;35140;-81
2022/08/03 01:04:31;;;;;;;8.05;4.10;;;;;;;18.78;66.91;99351.47;4484356;31;34324;-81
2022/08/03 01:07:11;;;;;;;5.65;2.95;;;;;;;18.21;69.95;99348.62;4488848;31;34233;-81
2022/08/03 01:09:55;;;;;;;5.78;3.90;;;;;;;18.77;67.31;99355.03;4498763;31;34027;-81
2022/08/03 01:12:31;;;;;;;4.70;3.37;;;;;;;18.09;69.80;99362.31;4500048;31;35163;-81
2022/08/03 01:15:12;;;;;;;4.80;3.35;;;;;;;18.31;68.50;99355.22;4500600;31;34352;-81
2022/08/03 01:18:05;;;;;;;7.35;3.80;;;;;;;18.53;67.75;99359.59;4500349;31;34208;-81
2022/08/03 01:20:35;;;;;;;5.45;3.92;;;;;;;18.68;67.40;99361.56;4498874;31;34034;-81
2022/08/03 01:23:12;;;;;;;4.85;3.60;;;;;;;18.22;69.07;99363.53;4500317;31;36050;-81
2022/08/03 01:25:55;;;;;;;5.72;3.28;;;;;;;18.48;68.06;99361.59;4497332;31;34731;-81
2022/08/03 01:28:53;;;;;;;7.10;3.72;;;;;;;17.98;69.94;99361.00;4499050;31;34075;-81
2022/08/03 01:31:26;;;;;;;5.95;4.18;;;;;;;17.95;70.83;99358.50;4497057;31;34031;-81
2022/08/03 01:34:02;;;;;;;5.82;4.20;;;;;;;18.19;69.91;99361.91;4497360;31;35883;-81
2022/08/03 01:36:42;;;;;;;5.37;3.97;;;;;;;17.93;71.61;99359.44;4498478;31;34590;-81
2022/08/03 01:39:11;;;;;;;8.38;4.43;;;;;;;17.39;73.22;99361.56;4498901;31;33594;-81
2022/08/03 01:41:47;;;;;;;6.30;4.45;;;;;;;17.83;72.08;99363.38;4497702;31;34056;-81
2022/08/03 01:44:16;;;;;;;8.20;4.93;;;;;;;17.89;71.78;99363.13;4500057;31;35096;-81
2022/08/03 01:46:59;;;;;;;6.28;4.30;;;;;;;17.76;73.64;99358.34;4500205;31;34436;-81
2022/08/03 01:49:33;;;;;;;6.28;4.80;;;;;;;18.08;71.97;99356.19;4500815;31;32854;-81
2022/08/03 01:52:01;;;;;;;5.82;4.50;;;;;;;18.14;72.95;99358.59;4498434;31;34112;-81
2022/08/03 01:54:35;;;;;;;7.50;5.68;;;;;;;18.25;71.94;99354.63;4487112;31;34148;-81
2022/08/03 01:57:03;;;;;;;8.18;5.47;;;;;;;18.21;72.01;99351.25;4500192;31;35208;-81
2022/08/03 01:59:33;;;;;;;7.28;5.22;;;;;;;18.17;72.37;99354.97;4500043;31;33499;-81
2022/08/03 02:02:03;;;;;;;7.62;5.40;;;;;;;18.01;72.91;99362.63;4499196;31;33938;-81
2022/08/03 02:04:53;;;;;;;8.00;5.87;;;;;;;18.01;74.66;99360.00;4498912;31;34917;-81
2022/08/03 02:07:22;;;;;;;8.32;5.95;;;;;;;18.18;73.17;99359.31;4484492;31;35009;-81
2022/08/03 02:09:51;;;;;;;6.55;5.22;;;;;;;17.96;73.85;99362.81;4484089;31;33537;-81
2022/08/03 02:12:21;;;;;;;7.22;5.55;;;;;;;18.23;73.42;99360.00;4500687;31;34007;-81
2022/08/03 02:14:49;;;;;;;9.35;5.78;;;;;;;18.14;74.04;99368.25;4497747;31;35532;-81
2022/08/03 02:17:19;;;;;;;8.45;5.87;;;;;;;18.21;73.33;99356.53;4496227;31;34504;-81
2022/08/03 02:20:08;;;;;;;7.53;5.65;;;;;;;17.81;75.65;99360.78;4498825;31;33075;-81
2022/08/03 02:22:39;;;;;;;7.90;6.03;;;;;;;18.17;74.51;99357.59;4499428;31;34855;-81
2022/08/03 02:25:12;;;;;;;9.05;6.10;;;;;;;17.94;74.41;99364.66;4500009;31;34263;-81
2022/08/03 02:28:07;;;;;;;8.98;6.05;;;;;;;18.34;73.90;99359.53;4501586;31;34404;-81
2022/08/03 02:30:38;;;;;;;7.70;6.18;;;;;;;18.47;73.34;99360.72;4491656;31;34052;-81
2022/08/03 02:33:10;;;;;;;7.03;5.60;;;;;;;18.26;74.35;99357.19;4499095;31;34401;-81
2022/08/03 02:35:38;;;;;;;8.55;6.35;;;;;;;18.43;73.58;99366.19;4489871;31;35027;-81
2022/08/03 02:38:07;;;;;;;8.35;6.05;;;;;;;18.20;74.92;99362.75;4501503;31;34033;-81
2022/08/03 02:40:36;;;;;;;7.80;6.20;;;;;;;18.26;74.87;99367.75;4499985;31;33403;-81
2022/08/03 02:43:07;;;;;;;8.60;6.37;;;;;;;18.26;74.80;99362.47;4500197;31;34727;-81
2022/08/03 02:45:42;;;;;;;7.68;5.78;;;;;;;18.09;76.03;99359.69;4500194;31;35774;-81
2022/08/03 02:48:15;;;;;;;10.35;6.78;;;;;;;18.25;75.36;99360.78;4501546;31;34410;-81
2022/08/03 02:50:44;;;;;;;9.60;5.68;;;;;;;18.36;74.69;99362.97;4500010;31;33582;-81
2022/08/03 02:53:13;;;;;;;8.73;5.78;;;;;;;18.48;74.80;99364.22;4502611;31;34630;-81
2022/08/03 02:55:41;;;;;;;9.82;6.35;;;;;;;18.45;74.10;99367.00;4501550;31;35113;-81
2022/08/03 02:58:13;;;;;;;8.15;5.62;;;;;;;18.49;73.48;99363.28;4502517;31;35280;-82
2022/08/03 03:00:43;;;;;;;8.57;6.03;;;;;;;18.50;73.53;99370.28;4497097;31;33272;-81
2022/08/03 03:03:11;;;;;;;8.13;5.43;;;;;;;18.50;73.31;99363.22;4501328;31;33903;-82
2022/08/03 03:05:40;;;;;;;7.47;5.65;;;;;;;18.32;73.59;99370.13;4496268;31;35512;-82
2022/08/03 03:08:24;;;;;;;7.68;5.47;;;;;;;18.32;73.71;99367.50;4485697;32;34334;-80
2022/08/03 03:10:58;;;;;;;9.77;7.00;;;;;;;18.17;74.28;99368.13;4486736;31;33429;-81
2022/08/03 03:13:30;;;;;;;9.40;6.43;;;;;;;18.03;75.47;99365.22;4490149;31;33944;-81
2022/08/03 03:16:00;;;;;;;9.82;6.28;;;;;;;17.78;77.00;99360.91;4498705;31;35174;-81
2022/08/03 03:18:30;;;;;;;8.20;6.12;;;;;;;18.15;75.27;99362.06;4501536;31;34390;-81
2022/08/03 03:21:00;;;;;;;8.75;5.80;;;;;;;18.24;75.03;99368.75;4499730;31;33341;-81
2022/08/03 03:23:28;;;;;;;8.23;5.85;;;;;;;18.25;74.65;99363.41;4501186;31;33972;-81
2022/08/03 03:25:57;;;;;;;8.35;5.45;;;;;;;17.89;76.63;99363.13;4499883;31;35978;-81
2022/08/03 03:28:25;;;;;;;7.85;6.05;;;;;;;17.98;75.43;99371.53;4502314;31;34004;-81
2022/08/03 03:30:53;;;;;;;8.02;5.53;;;;;;;18.08;76.33;99364.09;4487349;31;34038;-81
2022/08/03 03:33:22;;;;;;;9.77;6.25;;;;;;;18.16;74.96;99372.56;4501751;31;34000;-81
2022/08/03 03:35:50;;;;;;;9.77;6.18;;;;;;;18.00;75.71;99368.84;4486812;31;35522;-81
2022/08/03 03:38:19;;;;;;;9.50;5.93;;;;;;;17.77;77.23;99367.97;4499960;31;35228;-81
2022/08/03 03:40:47;;;;;;;12.10;6.70;;;;;;;18.03;76.32;99368.69;4487133;31;33380;-81
2022/08/03 03:43:17;;;;;;;9.38;6.12;;;;;;;17.99;76.22;99370.59;4501321;31;33604;-80
2022/08/03 03:45:46;;;;;;;8.55;6.47;;;;;;;18.11;76.42;99371.03;4480058;31;35277;-80
2022/08/03 03:48:14;;;;;;;10.85;7.20;;;;;;;18.19;76.31;99367.16;4494456;31;34350;-82
2022/08/03 03:50:43;;;;;;;9.18;6.72;;;;;;;18.00;77.39;99374.13;4498242;31;33542;-81
2022/08/03 03:53:13;;;;;;;9.05;6.87;;;;;;;18.09;78.28;99373.75;4493837;31;33887;-82
2022/08/03 03:55:42;;;;;;;8.55;6.50;;;;;;;18.36;77.78;99369.06;4498171;31;35818;-81
2022/08/03 03:58:31;;;;;;;13.88;6.80;;;;;;;18.14;78.83;99370.88;4492926;31;34492;-81
2022/08/03 04:00:59;;;;;;;10.15;6.50;;;;;;;18.22;78.10;99370.59;4500619;31;33472;-82
2022/08/03 04:03:27;;;;;;;11.80;6.47;;;;;;;18.30;77.77;99374.63;4493876;31;34078;-81
2022/08/03 04:11:44;;;;;;;12.00;6.53;;;;;;;17.48;83.39;99376.16;4491735;31;33428;-81
2022/08/03 04:14:31;;;;;;;7.28;5.55;;;;;;;18.69;77.51;99381.75;4482125;31;33245;-81
2022/08/03 04:17:04;;;;;;;10.88;6.68;;;;;;;18.91;75.70;99383.47;4498446;31;35101;-82
2022/08/03 04:19:43;;;;;;;8.40;6.00;;;;;;;19.03;77.08;99384.72;4493667;31;35453;-81
2022/08/03 04:22:17;;;;;;;10.35;6.47;;;;;;;19.24;75.99;99386.38;4491440;31;33382;-81
2022/08/03 04:24:48;;;;;;;7.80;6.05;;;;;;;18.93;77.14;99390.38;4492112;31;33935;-81
2022/08/03 04:27:23;;;;;;;7.97;5.57;;;;;;;19.05;77.49;99402.19;4493315;31;33866;-81
2022/08/03 04:29:53;;;;;;;8.80;6.03;;;;;;;19.44;76.79;99401.28;4493648;31;34322;-81
2022/08/03 04:32:24;;;;;;;8.32;5.75;;;;;;;19.81;74.99;99404.88;4478270;31;32856;-81
2022/08/03 04:34:52;;;;;;;9.45;5.75;;;;;;;20.03;75.44;99402.06;4493691;31;33123;-81
2022/08/03 04:37:28;;;;;;;8.10;5.82;;;;;;;19.86;75.08;99397.59;4497316;31;35078;-81
2022/08/03 04:39:58;;;;;;;10.60;6.60;;;;;;;20.06;75.43;99407.19;4501931;31;34369;-82
2022/08/03 04:42:27;;;;;;;7.93;5.75;;;;;;;20.25;74.69;99415.09;4499584;31;33439;-82
2022/08/03 04:44:55;;;;;;;7.35;5.40;;;;;;;20.63;73.32;99414.16;4487680;31;33113;-82
2022/08/03 04:47:33;;;;;;;9.15;5.85;;;;;;;20.86;71.92;99412.97;4486312;31;34240;-82
2022/08/03 04:50:02;;;;;;;7.97;5.47;;;;;;;20.66;74.00;99402.53;4501840;31;34263;-82
2022/08/03 04:52:31;;;;;;;8.93;5.87;;;;;;;21.69;70.07;99411.19;4499050;31;34358;-81
2022/08/03 04:54:58;;;;;;;11.25;5.85;;;;;;;21.98;69.19;99423.75;4500814;31;33962;-82
2022/08/03 04:57:26;;;;;;;7.57;5.75;;;;;;;21.68;72.12;99425.34;4500015;31;35280;-81
2022/08/03 04:59:55;;;;;;;10.80;5.53;;;;;;;22.18;68.61;99427.91;4500351;31;34509;-83
2022/08/03 05:02:31;;;;;;;9.50;6.40;;;;;;;22.43;68.03;99430.91;4499323;31;33542;-83
2022/08/03 05:04:59;;;;;;;9.35;5.72;;;;;;;22.25;69.47;99424.81;4492753;31;34081;-82
2022/08/03 05:07:28;;;;;;;9.20;5.87;;;;;;;22.60;68.75;99429.03;4491139;31;34962;-82
2022/08/03 05:10:08;;;;;;;8.30;6.22;;;;;;;22.85;68.87;99434.63;4500412;31;32760;-82
2022/08/03 05:12:44;;;;;;;8.23;5.60;;;;;;;23.23;66.60;99439.41;4498829;31;34106;-82
2022/08/03 05:15:13;;;;;;;9.90;5.20;;;;;;;23.20;66.63;99436.94;4501279;31;34298;-82
2022/08/03 05:17:41;;;;;;;8.75;6.28;;;;;;;23.91;65.52;99440.50;4486284;31;34219;-83
2022/08/03 05:20:10;;;;;;;8.63;6.35;;;;;;;24.56;61.19;99441.62;4500069;31;34241;-82
2022/08/03 05:22:38;;;;;;;8.23;5.60;;;;;;;24.66;60.56;99447.19;4498638;31;33306;-83
2022/08/03 05:25:06;;;;;;;8.30;5.25;;;;;;;24.59;60.58;99449.41;4501175;31;33652;-83
2022/08/03 05:27:34;;;;;;;7.07;5.32;;;;;;;24.58;59.99;99456.56;4499478;31;35050;-82
2022/08/03 05:30:03;;;;;;;8.32;5.80;;;;;;;24.88;57.41;99450.09;4501097;31;34404;-83
2022/08/03 05:32:52;;;;;;;6.93;5.57;;;;;;;25.47;55.19;99454.09;4499996;31;33845;-83
2022/08/03 05:35:20;;;;;;;7.03;5.50;;;;;;;25.20;57.54;99455.03;4500992;31;33917;-83
2022/08/03 05:38:08;;;;;;;6.65;5.20;;;;;;;25.85;54.97;99453.97;4486855;31;34278;-80
2022/08/03 05:40:37;;;;;;;7.62;5.70;;;;;;;26.02;54.84;99455.47;4499558;31;34268;-81
2022/08/03 05:43:13;;;;;;;7.87;5.72;;;;;;;26.69;51.72;99464.78;4499457;31;33230;-81
2022/08/03 05:45:42;;;;;;;6.72;5.20;;;;;;;26.14;52.47;99459.06;4499791;31;34604;-81
2022/08/03 05:48:09;;;;;;;10.73;5.72;;;;;;;26.51;52.65;99458.13;4499964;31;35090;-81
2022/08/03 05:50:37;;;;;;;11.25;5.65;;;;;;;26.43;52.42;99464.88;4500700;31;35747;-81
2022/08/03 05:53:09;;;;;;;8.45;5.57;;;;;;;27.40;49.72;99454.84;4500065;31;34366;-81
2022/08/03 05:55:37;;;;;;;6.90;5.20;;;;;;;27.44;49.73;99463.47;4500014;31;34732;-83
2022/08/03 05:58:05;;;;;;;8.55;4.72;;;;;;;27.88;48.41;99463.56;4498842;31;34908;-79
2022/08/03 06:00:33;;;;;;;6.50;5.28;;;;;;;28.50;44.51;99468.31;4502603;31;34617;-80
2022/08/03 06:03:01;;;;;;;8.35;6.05;;;;;;;27.16;50.65;99465.63;4501699;31;33871;-80
2022/08/03 06:05:30;;;;;;;8.75;5.18;;;;;;;28.23;46.84;99468.75;4502508;31;33911;-80
2022/08/03 06:07:58;;;;;;;7.18;5.45;;;;;;;27.14;47.94;99469.38;4500515;31;35048;-80
2022/08/03 06:10:26;;;;;;;8.77;5.75;;;;;;;28.11;47.56;99476.00;4502503;31;35157;-79
2022/08/03 06:13:04;;;;;;;6.82;5.07;;;;;;;28.64;45.75;99477.03;4493673;31;34239;-80
2022/08/03 06:15:34;;;;;;;5.87;4.57;;;;;;;28.85;45.65;99477.91;4492267;31;33961;-79
2022/08/03 06:18:02;;;;;;;8.98;6.40;;;;;;;28.52;46.91;99479.75;4501630;31;36143;-79
2022/08/03 06:20:29;;;;;;;8.15;5.78;;;;;;;29.04;45.00;99479.03;4502504;31;35116;-80
2022/08/03 06:22:59;;;;;;;7.85;5.53;;;;;;;29.00;43.86;99474.91;4500029;31;33519;-79
2022/08/03 06:25:28;;;;;;;6.62;4.97;;;;;;;28.62;44.26;99476.31;4502712;31;35362;-79
2022/08/03 06:27:56;;;;;;;9.30;5.45;;;;;;;28.64;43.59;99477.03;4500289;31;35101;-80
2022/08/03 06:30:24;;;;;;;7.75;5.15;;;;;;;29.21;43.31;99472.25;4501342;31;34563;-79
2022/08/03 06:32:52;;;;;;;8.38;4.97;;;;;;;28.82;43.62;99480.00;4501559;31;33506;-79
2022/08/03 06:35:20;;;;;;;7.35;4.90;;;;;;;29.55;42.86;99486.25;4500888;31;34046;-79
2022/08/03 06:37:49;;;;;;;9.85;5.35;;;;;;;29.45;41.17;99483.50;4499565;31;35244;-79
2022/08/03 06:40:19;;;;;;;6.78;5.43;;;;;;;29.33;42.04;99489.94;4501257;31;35184;-79
2022/08/03 06:42:51;;;;;;;6.60;5.15;;;;;;;30.45;40.53;99486.41;4500456;31;33466;-79
2022/08/03 06:45:19;;;;;;;11.63;5.25;;;;;;;30.20;40.75;99488.59;4499489;31;33927;-79
2022/08/03 06:47:47;;;;;;;11.10;5.18;;;;;;;29.61;41.52;99495.59;4489690;31;35048;-79
2022/08/03 06:50:17;;;;;;;10.95;5.40;;;;;;;30.48;39.89;99495.03;4485456;32;33961;-79
2022/08/03 06:52:50;;;;;;;6.78;5.45;;;;;;;29.69;40.35;99496.59;4496538;31;34384;-78
2022/08/03 06:55:18;;;;;;;6.95;5.50;;;;;;;29.98;39.55;99500.41;4500794;31;34014;-78
2022/08/03 06:57:46;;;;;;;6.87;4.97;;;;;;;30.72;38.17;99493.75;4501675;31;35996;-78
2022/08/03 07:00:15;;;;;;;8.13;4.97;;;;;;;29.69;40.30;99491.25;4500844;31;34392;-78
2022/08/03 07:02:46;;;;;;;7.97;4.82;;;;;;;29.84;40.58;99493.59;4498836;31;33450;-78
2022/08/03 07:05:19;;;;;;;6.60;5.05;;;;;;;30.43;38.75;99495.44;4501285;31;34416;-78
2022/08/03 07:07:48;;;;;;;6.72;5.10;;;;;;;30.34;38.69;99496.28;4496365;31;35075;-78
2022/08/03 07:10:15;;;;;;;8.82;5.43;;;;;;;29.86;39.39;99496.97;4499867;31;35235;-78
2022/08/03 07:12:43;;;;;;;6.18;4.85;;;;;;;30.04;39.00;99489.97;4498528;31;33512;-78
2022/08/03 07:15:24;;;;;;;7.60;5.40;;;;;;;30.47;38.90;99496.00;4502227;31;33920;-78
2022/08/03 07:18:12;;;;;;;6.15;4.90;;;;;;;31.35;37.64;99479.78;4501525;31;35042;-78
2022/08/03 07:20:40;;;;;;;6.35;4.80;;;;;;;31.88;36.33;99489.09;4502332;31;35156;-77
2022/08/03 07:23:08;;;;;;;8.15;5.50;;;;;;;31.08;37.44;99500.25;4500577;31;33657;-78
2022/08/03 07:25:45;;;;;;;6.45;4.90;;;;;;;31.66;36.60;99495.69;4501161;31;34233;-77
2022/08/03 07:28:13;;;;;;;8.50;5.47;;;;;;;31.27;36.91;99488.56;4488570;31;35993;-78
2022/08/03 07:30:41;;;;;;;6.90;5.15;;;;;;;31.15;36.61;99490.63;4486515;32;34435;-78
2022/08/03 07:33:09;;;;;;;8.80;5.55;;;;;;;31.77;35.17;99484.75;4497599;31;34186;-78
2022/08/03 07:35:37;;;;;;;8.13;5.95;;;;;;;32.00;37.15;99489.75;4501247;31;34633;-78
2022/08/03 07:38:05;;;;;;;8.95;5.20;;;;;;;32.24;35.89;99487.31;4499199;31;35071;-78
2022/08/03 07:40:33;;;;;;;9.35;4.70;;;;;;;31.92;36.04;99488.63;4501674;31;34237;-75
2022/08/03 07:43:02;;;;;;;6.43;5.10;;;;;;;31.45;36.86;99491.37;4499290;31;32971;-79
2022/08/03 07:45:31;;;;;;;7.05;5.35;;;;;;;32.63;36.64;99487.09;4502468;31;34353;-79
2022/08/03 07:47:59;;;;;;;9.23;5.75;;;;;;;32.63;35.55;99486.22;4501120;31;35039;-78
2022/08/03 07:50:27;;;;;;;8.90;5.25;;;;;;;33.05;34.46;99489.06;4501453;31;35259;-78
2022/08/03 07:52:56;;;;;;;9.75;5.65;;;;;;;33.97;32.58;99488.59;4499859;31;33430;-79
2022/08/03 07:55:25;;;;;;;11.70;5.95;;;;;;;31.62;36.04;99488.94;4501081;31;34054;-79
2022/08/03 07:58:05;;;;;;;8.70;4.80;;;;;;;32.40;35.77;99486.66;4500803;31;35063;-77
2022/08/03 08:00:34;;;;;;;10.82;5.05;;;;;;;33.61;33.68;99486.06;4502046;31;34683;-80
2022/08/03 08:03:02;;;;;;;7.18;4.78;;;;;;;32.83;33.98;99492.31;4501200;31;33258;-79
2022/08/03 08:05:30;;;;;;;13.55;5.25;;;;;;;32.75;33.89;99492.22;4500487;31;33896;-80
2022/08/03 08:07:59;;;;;;;42.88;7.20;;;;;;;32.82;33.60;99493.28;4500143;31;35027;-81
2022/08/03 08:10:27;;;;;;;8.95;4.93;;;;;;;32.50;35.08;99491.97;4501859;31;34324;-79
2022/08/03 08:12:56;;;;;;;6.05;4.85;;;;;;;33.16;32.79;99493.41;4501179;31;33596;-76
2022/08/03 08:15:24;;;;;;;6.00;4.57;;;;;;;33.76;31.24;99499.81;4501022;31;33942;-79
2022/08/03 08:17:58;;;;;;;6.15;4.32;;;;;;;32.53;34.88;99485.44;4500050;31;36000;-77
2022/08/03 08:20:29;;;;;;;6.12;4.65;;;;;;;32.80;33.70;99488.03;4500903;31;34340;-77
2022/08/03 08:23:00;;;;;;;6.72;4.90;;;;;;;33.94;32.04;99491.66;4497951;31;33563;-77
2022/08/03 08:25:31;;;;;;;7.65;4.60;;;;;;;33.57;33.41;99492.81;4500622;31;34031;-77
2022/08/03 08:28:03;;;;;;;6.25;4.30;;;;;;;33.84;30.74;99490.94;4499328;31;35116;-79
2022/08/03 08:30:51;;;;;;;7.60;4.40;;;;;;;33.49;31.53;99487.38;4501666;31;35061;-78
2022/08/03 08:33:19;;;;;;;5.30;4.43;;;;;;;33.89;32.30;99483.19;4496920;31;34171;-77
2022/08/03 08:35:52;;;;;;;6.37;4.80;;;;;;;33.37;32.83;99489.47;4500935;31;33959;-77
2022/08/03 08:38:21;;;;;;;5.40;4.20;;;;;;;34.65;30.46;99489.44;4498951;31;35008;-77
2022/08/03 08:40:49;;;;;;;5.62;4.25;;;;;;;33.81;31.70;99489.38;4500420;31;34918;-77
2022/08/03 08:43:17;;;;;;;7.87;4.90;;;;;;;34.69;30.55;99488.09;4500662;31;34366;-77
2022/08/03 08:45:49;;;;;;;5.95;4.62;;;;;;;33.11;33.39;99489.44;4501681;31;34010;-78
2022/08/03 08:48:23;;;;;;;7.03;5.00;;;;;;;33.10;32.54;99485.06;4486552;31;35915;-76
2022/08/03 08:50:53;;;;;;;6.62;4.45;;;;;;;34.19;30.69;99490.72;4498953;31;34484;-77
2022/08/03 08:53:24;;;;;;;7.57;4.75;;;;;;;33.43;32.41;99484.28;4498847;31;33442;-76
2022/08/03 08:55:59;;;;;;;6.87;5.07;;;;;;;32.85;33.03;99484.91;4500258;31;33652;-81
2022/08/03 08:58:29;;;;;;;10.25;5.05;;;;;;;33.52;33.88;99481.66;4499032;31;35043;-78
2022/08/03 09:00:58;;;;;;;8.00;6.18;;;;;;;33.62;33.03;99476.94;4501108;31;33651;-82
2022/08/03 09:03:26;;;;;;;8.13;5.35;;;;;;;33.96;32.49;99478.81;4500441;31;33762;-78
2022/08/03 09:06:01;;;;;;;7.53;6.53;;;;;;;33.58;32.21;99481.00;4499832;31;33517;-78
2022/08/03 09:08:30;;;;;;;7.00;4.87;;;;;;;34.60;31.70;99475.59;4497031;31;35621;-77
2022/08/03 09:10:59;;;;;;;6.47;4.50;;;;;;;35.86;29.23;99477.75;4501253;31;34412;-77
2022/08/03 09:13:29;;;;;;;5.80;4.43;;;;;;;35.61;30.07;99467.00;4500544;31;33555;-79
2022/08/03 09:16:26;;;;;;;6.03;4.90;;;;;;;33.70;32.18;99479.72;4500097;31;33830;-77
2022/08/03 09:18:54;;;;;;;6.82;4.93;;;;;;;34.12;32.31;99478.03;4487411;31;35820;-77
2022/08/03 09:21:25;;;;;;;5.53;3.90;;;;;;;35.27;29.21;99462.72;4501189;31;35076;-79
2022/08/03 09:24:03;;;;;;;7.80;4.68;;;;;;;35.07;28.94;99469.50;4498436;31;34239;-78
2022/08/03 09:26:36;;;;;;;8.13;4.32;;;;;;;34.76;29.80;99464.78;4500297;31;34005;-79
2022/08/03 09:29:07;;;;;;;6.32;4.32;;;;;;;34.51;29.97;99462.03;4499520;31;35905;-78
2022/08/03 09:31:45;;;;;;;5.70;4.00;;;;;;;35.05;29.49;99468.81;4501042;31;34512;-77
2022/08/03 09:34:15;;;;;;;5.10;4.12;;;;;;;35.34;29.51;99459.31;4498333;31;33450;-77
2022/08/03 09:36:45;;;;;;;5.18;4.12;;;;;;;35.78;28.18;99458.84;4499403;31;34056;-77
2022/08/03 09:39:20;;;;;;;7.78;4.50;;;;;;;35.86;27.29;99456.06;4497461;31;34242;-78
2022/08/03 09:42:11;;;;;;;6.55;3.80;;;;;;;35.92;28.17;99460.78;4498047;31;34517;-77
2022/08/03 09:44:43;;;;;;;5.37;4.18;;;;;;;35.67;27.72;99465.47;4493839;31;33405;-78
2022/08/03 09:47:12;;;;;;;6.18;3.97;;;;;;;35.18;28.62;99463.72;4500225;31;34785;-78
2022/08/03 09:49:41;;;;;;;5.07;3.47;;;;;;;34.70;29.92;99449.25;4485263;32;34789;-77
2022/08/03 09:52:15;;;;;;;6.00;4.20;;;;;;;35.50;27.16;99448.41;4484840;31;35106;-77
2022/08/03 09:55:13;;;;;;;6.50;3.65;;;;;;;35.62;27.12;99452.44;4485139;32;34451;-77
2022/08/03 09:58:06;;;;;;;5.70;3.95;;;;;;;36.49;26.29;99450.63;4487124;31;34771;-76
2022/08/03 10:00:58;;;;;;;4.72;3.70;;;;;;;35.47;27.02;99443.34;4499493;31;35920;-76
2022/08/03 10:03:29;;;;;;;7.82;4.30;;;;;;;35.53;26.55;99439.94;4486096;31;34311;-77
2022/08/03 10:05:58;;;;;;;5.65;4.30;;;;;;;35.39;26.70;99440.69;4500820;31;33568;-76
2022/08/03 10:08:27;;;;;;;6.32;4.40;;;;;;;35.40;28.02;99443.19;4498358;31;33331;-77
2022/08/03 10:10:57;;;;;;;8.38;3.83;;;;;;;35.29;26.80;99432.75;4500717;31;35938;-77
2022/08/03 10:13:26;;;;;;;4.97;3.65;;;;;;;35.43;27.54;99433.91;4498052;31;34825;-77
2022/08/03 10:15:54;;;;;;;4.60;3.58;;;;;;;35.67;26.35;99424.81;4484800;32;34121;-77
2022/08/03 10:18:42;;;;;;;9.82;3.85;;;;;;;35.77;28.08;99425.47;4497767;31;33961;-77
2022/08/03 10:21:11;;;;;;;5.05;3.60;;;;;;;36.34;26.09;99427.00;4499428;31;33853;-77
2022/08/03 10:23:40;;;;;;;6.22;3.85;;;;;;;36.73;25.64;99420.59;4498217;31;35183;-77
2022/08/03 10:26:09;;;;;;;7.65;3.67;;;;;;;37.11;24.05;99423.25;4499363;31;33180;-77
2022/08/03 10:28:40;;;;;;;7.30;4.20;;;;;;;36.57;24.49;99421.56;4497951;31;33851;-77
2022/08/03 10:31:13;;;;;;;5.32;3.60;;;;;;;37.08;24.07;99418.22;4486830;31;34389;-76
2022/08/03 10:33:42;;;;;;;5.35;3.97;;;;;;;36.40;25.07;99420.00;4497833;31;34344;-77
2022/08/03 10:36:22;;;;;;;5.97;3.65;;;;;;;36.38;25.31;99414.75;4486105;31;33470;-77
2022/08/03 10:38:52;;;;;;;4.50;3.70;;;;;;;36.58;25.48;99416.97;4497637;31;34853;-77
2022/08/03 10:41:22;;;;;;;4.68;3.42;;;;;;;36.83;25.07;99414.87;4499080;31;35748;-77
2022/08/03 10:44:07;;;;;;;7.12;3.37;;;;;;;37.14;25.89;99414.75;4499035;31;35196;-76
2022/08/03 10:46:39;;;;;;;3.50;2.72;;;;;;;37.60;23.57;99407.44;4499735;31;33727;-76
2022/08/03 10:49:14;;;;;;;3.80;3.15;;;;;;;37.34;23.05;99401.44;4500172;31;34750;-76
2022/08/03 10:51:44;;;;;;;4.18;3.40;;;;;;;36.90;24.05;99401.44;4501452;31;34299;-77
2022/08/03 10:54:34;;;;;;;5.35;3.65;;;;;;;37.05;23.47;99396.88;4498747;31;35018;-77
2022/08/03 10:59:49;;;;;;;4.30;3.40;;;;;;;37.10;24.26;99397.16;4501334;31;33707;-77
2022/08/03 11:02:18;;;;;;;5.30;3.47;;;;;;;36.41;24.96;99392.72;4501557;31;36055;-77
2022/08/03 11:04:45;;;;;;;4.22;3.12;;;;;;;35.52;24.91;99394.09;4501490;31;34396;-76
2022/08/03 11:07:22;;;;;;;3.50;2.50;;;;;;;36.83;23.16;99389.63;4502496;31;34070;-77
2022/08/03 11:09:55;;;;;;;7.82;2.50;;;;;;;36.58;23.60;99381.69;4499252;31;34225;-77
2022/08/03 11:12:32;;;;;;;4.87;3.10;;;;;;;35.89;23.87;99379.84;4496482;31;35835;-76
2022/08/03 11:15:06;;;;;;;4.18;3.33;;;;;;;36.52;23.49;99386.00;4485423;32;34413;-77
2022/08/03 11:17:35;;;;;;;4.87;3.30;;;;;;;36.66;23.89;99378.91;4487136;31;33494;-76
2022/08/03 11:20:56;;;;;;;4.53;2.95;;;;;;;36.55;24.63;99373.94;4474875;32;34049;-77
2022/08/03 11:23:45;;;;;;;3.97;2.75;;;;;;;36.42;23.41;99369.13;4492132;31;35875;-77
2022/08/03 11:26:33;;;;;;;3.95;2.40;;;;;;;36.48;22.92;99372.97;4502397;31;35308;-77
2022/08/03 11:29:28;;;;;;;4.78;3.25;;;;;;;35.71;23.12;99366.59;4499564;31;33381;-77
2022/08/03 11:31:56;;;;;;;4.60;3.50;;;;;;;33.56;27.00;99369.59;4494885;31;33833;-77
2022/08/03 11:34:25;;;;;;;7.40;3.10;;;;;;;33.58;28.18;99362.19;4501335;31;35175;-76
2022/08/03 11:37:19;;;;;;;4.65;3.08;;;;;;;32.91;28.78;99362.88;4500841;31;34514;-77
2022/08/03 11:39:51;;;;;;;5.03;3.17;;;;;;;33.13;28.16;99357.94;4500418;31;33698;-76
2022/08/03 11:42:26;;;;;;;4.18;2.95;;;;;;;34.06;26.55;99360.63;4488078;31;33978;-77
2022/08/03 11:44:55;;;;;;;4.57;3.12;;;;;;;34.27;26.03;99351.19;4498754;31;34556;-76
2022/08/03 11:47:25;;;;;;;7.68;2.92;;;;;;;34.02;26.46;99353.84;4502150;31;35283;-76
2022/08/03 11:49:57;;;;;;;4.72;3.17;;;;;;;33.19;28.08;99352.75;4499563;31;33602;-77
2022/08/03 11:52:26;;;;;;;34.75;5.35;;;;;;;33.14;28.46;99348.84;4501131;31;34003;-77
2022/08/03 11:54:55;;;;;;;4.50;3.50;;;;;;;33.27;28.73;99354.66;4501208;31;35126;-76
2022/08/03 11:57:31;;;;;;;5.40;3.12;;;;;;;33.81;26.51;99349.78;4501832;31;34528;-76
2022/08/03 12:00:30;;;;;;;4.75;3.47;;;;;;;32.53;27.90;99356.88;4487609;31;34390;-76
2022/08/03 12:03:01;;;;;;;3.83;3.10;;;;;;;33.50;28.03;99354.91;4501193;31;33798;-76
2022/08/03 12:05:38;;;;;;;5.28;3.55;;;;;;;33.28;28.19;99350.94;4500531;31;35468;-76